Time;durP1;ratioP1;P1;durP2;ratioP2;P2;SDS_P1;SDS_P2;PMS_P1;PMS_P2;Temp;Humidity;BMP_temperature;BMP_pressure;BME280_temperature;BME280_humidity;BME280_pressure;Samples;Min_cycle;Max_cycle;Signal;HPM_P1;HPM_P2
2021/08/11 00:00:16;;;;;;;8.10;2.55;;;;;;;;;;5002811;28;20025;-76
2021/08/11 00:02:42;;;;;;;4.65;2.42;;;;;;;;;;5003629;28;20022;-76
2021/08/11 00:05:08;;;;;;;7.18;2.92;;;;;;;;;;5003641;28;20030;-76
2021/08/11 00:07:34;;;;;;;7.18;2.80;;;;;;;;;;5003679;28;20022;-77
2021/08/11 00:10:00;;;;;;;7.30;2.67;;;;;;;;;;5004838;28;20606;-76
2021/08/11 00:12:26;;;;;;;4.07;2.75;;;;;;;;;;5004318;28;20022;-77
2021/08/11 00:14:52;;;;;;;5.68;2.75;;;;;;;;;;5004860;28;20038;-77
2021/08/11 00:17:20;;;;;;;4.85;2.88;;;;;;;;;;5005837;28;20073;-77
2021/08/11 00:19:46;;;;;;;8.20;2.88;;;;;;;;;;5005628;28;20045;-77
2021/08/11 00:22:12;;;;;;;7.55;2.75;;;;;;;;;;5007633;28;20026;-77
2021/08/11 00:24:38;;;;;;;4.70;2.80;;;;;;;;;;5005956;28;20015;-77
2021/08/11 00:27:04;;;;;;;7.93;2.63;;;;;;;;;;5006766;28;20080;-77
2021/08/11 00:29:30;;;;;;;6.85;2.97;;;;;;;;;;5003693;28;20112;-77
2021/08/11 00:31:56;;;;;;;6.30;3.13;;;;;;;;;;5005741;28;20033;-77
2021/08/11 00:34:22;;;;;;;6.65;3.20;;;;;;;;;;5004898;28;20025;-77
2021/08/11 00:36:48;;;;;;;5.18;2.60;;;;;;;;;;5004657;28;20077;-77
2021/08/11 00:39:14;;;;;;;6.28;3.03;;;;;;;;;;5006117;28;20104;-77
2021/08/11 00:41:44;;;;;;;4.70;2.67;;;;;;;;;;5004714;28;20502;-77
2021/08/11 00:44:11;;;;;;;7.78;3.05;;;;;;;;;;5005267;28;20467;-77
2021/08/11 00:46:41;;;;;;;5.18;2.88;;;;;;;;;;5005915;28;20014;-76
2021/08/11 00:49:07;;;;;;;5.63;2.83;;;;;;;;;;5003651;28;20025;-77
2021/08/11 00:51:33;;;;;;;5.00;2.85;;;;;;;;;;5003417;28;20018;-77
2021/08/11 00:54:00;;;;;;;6.78;2.92;;;;;;;;;;5004757;28;20096;-76
2021/08/11 00:56:26;;;;;;;6.10;3.05;;;;;;;;;;5004751;28;20036;-77
2021/08/11 00:58:53;;;;;;;6.00;3.08;;;;;;;;;;5004684;28;20035;-76
2021/08/11 01:01:19;;;;;;;8.05;2.90;;;;;;;;;;5003733;28;20039;-77
2021/08/11 01:03:45;;;;;;;6.60;2.97;;;;;;;;;;5002885;28;20486;-77
2021/08/11 01:06:12;;;;;;;4.82;2.80;;;;;;;;;;4999810;28;20113;-77
2021/08/11 01:08:40;;;;;;;5.60;2.67;;;;;;;;;;5004420;28;20364;-77
2021/08/11 01:11:06;;;;;;;3.97;2.80;;;;;;;;;;5003346;28;20026;-77
2021/08/11 01:13:33;;;;;;;4.57;3.08;;;;;;;;;;5003667;28;20034;-77
2021/08/11 01:15:59;;;;;;;6.22;3.00;;;;;;;;;;5004648;28;20018;-77
2021/08/11 01:18:25;;;;;;;4.97;3.22;;;;;;;;;;5007030;28;20041;-77
2021/08/11 01:20:55;;;;;;;5.20;2.95;;;;;;;;;;5003602;28;20033;-77
2021/08/11 01:23:22;;;;;;;5.78;3.00;;;;;;;;;;5004572;28;20485;-77
2021/08/11 01:25:52;;;;;;;6.45;3.38;;;;;;;;;;5003548;28;20029;-77
2021/08/11 01:28:21;;;;;;;9.88;3.53;;;;;;;;;;5002263;28;20068;-77
2021/08/11 01:30:50;;;;;;;7.05;3.20;;;;;;;;;;5002607;28;20363;-77
2021/08/11 01:33:46;;;;;;;6.35;3.60;;;;;;;;;;5002777;28;20014;-77
2021/08/11 01:36:17;;;;;;;7.93;3.00;;;;;;;;;;5008437;28;20022;-76
2021/08/11 01:38:47;;;;;;;5.78;3.45;;;;;;;;;;5001168;28;20458;-76
2021/08/11 01:41:14;;;;;;;5.93;3.13;;;;;;;;;;5003958;28;20014;-76
2021/08/11 01:43:42;;;;;;;6.20;3.35;;;;;;;;;;5001866;28;20023;-76
2021/08/11 01:46:10;;;;;;;8.32;3.42;;;;;;;;;;5004721;28;20030;-77
2021/08/11 01:48:38;;;;;;;5.95;3.40;;;;;;;;;;5003150;28;20046;-77
2021/08/11 01:51:04;;;;;;;5.57;3.08;;;;;;;;;;5004054;28;20089;-77
2021/08/11 01:53:31;;;;;;;6.22;3.85;;;;;;;;;;4999330;28;20026;-77
2021/08/11 01:55:59;;;;;;;5.88;3.25;;;;;;;;;;5003027;28;20491;-77
2021/08/11 01:58:25;;;;;;;6.47;3.70;;;;;;;;;;5000783;28;20849;-77
2021/08/11 02:00:52;;;;;;;5.75;3.95;;;;;;;;;;5002145;28;20026;-76
2021/08/11 02:03:20;;;;;;;8.07;4.32;;;;;;;;;;5001761;28;20026;-77
2021/08/11 02:05:46;;;;;;;7.47;3.47;;;;;;;;;;5011406;28;20095;-77
2021/08/11 02:08:12;;;;;;;6.32;3.60;;;;;;;;;;5020922;28;20101;-76
2021/08/11 02:10:39;;;;;;;5.80;3.65;;;;;;;;;;5020163;28;20022;-76
2021/08/11 02:13:05;;;;;;;8.50;3.85;;;;;;;;;;5016235;28;20072;-75
2021/08/11 02:15:31;;;;;;;5.75;3.63;;;;;;;;;;5002547;28;20066;-77
2021/08/11 02:17:57;;;;;;;7.78;3.88;;;;;;;;;;5005300;28;20041;-77
2021/08/11 02:20:23;;;;;;;9.73;3.88;;;;;;;;;;5005426;28;20022;-77
2021/08/11 02:22:49;;;;;;;6.75;3.50;;;;;;;;;;5003518;28;20026;-77
2021/08/11 02:25:16;;;;;;;5.22;3.33;;;;;;;;;;5004836;28;20089;-77
2021/08/11 02:27:52;;;;;;;6.35;3.10;;;;;;;;;;5001340;28;20037;-76
2021/08/11 02:30:21;;;;;;;5.57;3.47;;;;;;;;;;4998228;28;20072;-76
2021/08/11 02:33:20;;;;;;;5.47;3.30;;;;;;;;;;5002803;28;20029;-77
2021/08/11 02:35:54;;;;;;;3.88;3.10;;;;;;;;;;4970829;28;20261;-77
2021/08/11 02:38:25;;;;;;;4.60;3.55;;;;;;;;;;5002919;28;20044;-77
2021/08/11 02:41:10;;;;;;;5.20;3.40;;;;;;;;;;5002585;28;20026;-77
2021/08/11 02:43:51;;;;;;;6.10;3.45;;;;;;;;;;5001680;28;20070;-77
2021/08/11 02:46:18;;;;;;;4.43;3.17;;;;;;;;;;5001008;28;20030;-76
2021/08/11 02:48:50;;;;;;;5.78;3.10;;;;;;;;;;5001947;28;20076;-77
2021/08/11 02:51:16;;;;;;;4.45;3.33;;;;;;;;;;4999578;28;20117;-77
2021/08/11 02:53:42;;;;;;;9.98;3.63;;;;;;;;;;5003517;28;20026;-77
2021/08/11 02:56:09;;;;;;;6.68;3.88;;;;;;;;;;5001573;28;20034;-77
2021/08/11 02:58:36;;;;;;;5.50;3.35;;;;;;;;;;5001076;28;20045;-76
2021/08/11 03:01:02;;;;;;;5.28;3.53;;;;;;;;;;5002960;28;20475;-77
2021/08/11 03:03:28;;;;;;;5.65;3.40;;;;;;;;;;5001187;28;20084;-77
2021/08/11 03:05:54;;;;;;;7.47;3.65;;;;;;;;;;4999483;28;20505;-77
2021/08/11 03:08:20;;;;;;;5.32;3.38;;;;;;;;;;5002625;28;20399;-77
2021/08/11 03:10:46;;;;;;;10.32;3.65;;;;;;;;;;5004124;28;20028;-77
2021/08/11 03:13:14;;;;;;;5.68;3.42;;;;;;;;;;5002702;28;20023;-77
2021/08/11 03:15:42;;;;;;;9.15;3.83;;;;;;;;;;5006561;28;20022;-77
2021/08/11 03:18:08;;;;;;;5.32;3.53;;;;;;;;;;5002714;28;20042;-76
2021/08/11 03:20:34;;;;;;;5.53;3.45;;;;;;;;;;5002045;28;20026;-76
2021/08/11 03:23:00;;;;;;;5.15;3.30;;;;;;;;;;5002121;28;20030;-77
2021/08/11 03:25:26;;;;;;;6.88;3.35;;;;;;;;;;5002068;28;20367;-77
2021/08/11 03:27:52;;;;;;;4.10;2.95;;;;;;;;;;5001482;28;20057;-76
2021/08/11 03:30:18;;;;;;;5.85;3.75;;;;;;;;;;5003839;28;20036;-76
2021/08/11 03:32:44;;;;;;;8.07;3.58;;;;;;;;;;5001721;28;20033;-76
2021/08/11 03:35:10;;;;;;;4.68;3.60;;;;;;;;;;5001518;28;20041;-76
2021/08/11 03:37:36;;;;;;;7.03;3.78;;;;;;;;;;5002449;28;20057;-76
2021/08/11 03:40:03;;;;;;;6.90;3.85;;;;;;;;;;5015604;22;20082;-74
2021/08/11 03:42:29;;;;;;;7.80;3.83;;;;;;;;;;4978496;28;20093;-74
2021/08/11 03:44:54;;;;;;;7.07;3.08;;;;;;;;;;4981488;28;20022;-74
2021/08/11 03:47:20;;;;;;;4.88;3.25;;;;;;;;;;4982142;28;20487;-74
2021/08/11 03:49:49;;;;;;;6.50;3.25;;;;;;;;;;4982576;28;20099;-74
2021/08/11 03:52:15;;;;;;;8.77;3.47;;;;;;;;;;4982074;28;20411;-74
2021/08/11 03:54:41;;;;;;;5.45;3.03;;;;;;;;;;4977904;28;20117;-74
2021/08/11 03:57:07;;;;;;;6.55;3.38;;;;;;;;;;4982551;28;20129;-74
2021/08/11 03:59:34;;;;;;;5.50;3.88;;;;;;;;;;4981275;28;20034;-74
2021/08/11 04:02:01;;;;;;;9.60;3.53;;;;;;;;;;4981049;28;20027;-74
2021/08/11 04:04:27;;;;;;;6.15;3.38;;;;;;;;;;4981892;28;20019;-73
2021/08/11 04:06:53;;;;;;;9.98;3.40;;;;;;;;;;4980625;28;20026;-74
2021/08/11 04:09:19;;;;;;;8.15;3.20;;;;;;;;;;4979897;28;20097;-74
2021/08/11 04:11:45;;;;;;;8.93;3.80;;;;;;;;;;4980648;28;20031;-74
2021/08/11 04:14:12;;;;;;;8.52;4.15;;;;;;;;;;4978820;28;20019;-74
2021/08/11 04:16:39;;;;;;;5.82;4.03;;;;;;;;;;4983468;28;20026;-74
2021/08/11 04:19:05;;;;;;;8.20;4.50;;;;;;;;;;4981519;28;20136;-74
2021/08/11 04:21:31;;;;;;;6.40;3.90;;;;;;;;;;4979979;28;20468;-74
2021/08/11 04:23:57;;;;;;;7.25;4.20;;;;;;;;;;4981198;28;20050;-74
2021/08/11 04:26:23;;;;;;;6.30;3.58;;;;;;;;;;4982267;28;20073;-74
2021/08/11 04:28:49;;;;;;;4.78;3.50;;;;;;;;;;4983007;28;20539;-74
2021/08/11 04:31:15;;;;;;;5.10;3.38;;;;;;;;;;4981949;28;20094;-74
2021/08/11 04:33:41;;;;;;;7.07;3.50;;;;;;;;;;4982451;28;20059;-74
2021/08/11 04:36:07;;;;;;;5.35;3.28;;;;;;;;;;4983098;28;20113;-74
2021/08/11 04:38:33;;;;;;;7.07;3.50;;;;;;;;;;4980718;28;20074;-74
2021/08/11 04:40:59;;;;;;;5.65;3.80;;;;;;;;;;4985605;28;20023;-73
2021/08/11 04:43:25;;;;;;;12.32;3.90;;;;;;;;;;4985180;28;20387;-74
2021/08/11 04:45:51;;;;;;;10.38;3.80;;;;;;;;;;4985942;28;20097;-74
2021/08/11 04:48:17;;;;;;;5.97;3.60;;;;;;;;;;4982793;28;20081;-74
2021/08/11 04:50:43;;;;;;;7.05;4.00;;;;;;;;;;4983720;28;20030;-74
2021/08/11 04:53:09;;;;;;;7.97;4.05;;;;;;;;;;4983657;28;20034;-74
2021/08/11 04:55:36;;;;;;;6.82;3.55;;;;;;;;;;4985952;28;20498;-74
2021/08/11 04:58:02;;;;;;;5.30;3.38;;;;;;;;;;4984261;28;20038;-74
2021/08/11 05:00:28;;;;;;;6.85;3.33;;;;;;;;;;4983773;28;20510;-74
2021/08/11 05:02:54;;;;;;;5.68;2.95;;;;;;;;;;4981175;28;20368;-74
2021/08/11 05:05:20;;;;;;;6.65;3.40;;;;;;;;;;4984586;28;20029;-74
2021/08/11 05:07:46;;;;;;;8.52;3.00;;;;;;;;;;4983557;28;20039;-74
2021/08/11 05:10:12;;;;;;;7.93;2.65;;;;;;;;;;4984703;28;20030;-74
2021/08/11 05:12:38;;;;;;;5.85;2.95;;;;;;;;;;4983773;28;20057;-74
2021/08/11 05:15:05;;;;;;;5.53;2.70;;;;;;;;;;4985737;28;20031;-74
2021/08/11 05:17:31;;;;;;;5.68;2.80;;;;;;;;;;4983466;28;20023;-74
2021/08/11 05:19:57;;;;;;;3.72;2.80;;;;;;;;;;4965739;28;20022;-74
2021/08/11 05:22:23;;;;;;;4.40;3.10;;;;;;;;;;4985010;28;20113;-74
2021/08/11 05:24:49;;;;;;;6.80;3.10;;;;;;;;;;4985248;28;20105;-74
2021/08/11 05:27:16;;;;;;;3.53;2.67;;;;;;;;;;4984195;28;20064;-74
2021/08/11 05:29:45;;;;;;;6.72;2.65;;;;;;;;;;4982992;28;20026;-74
2021/08/11 05:32:11;;;;;;;6.63;3.00;;;;;;;;;;4978256;28;20027;-74
2021/08/11 05:34:37;;;;;;;5.25;2.67;;;;;;;;;;4981914;28;20030;-74
2021/08/11 05:37:06;;;;;;;5.07;2.83;;;;;;;;;;4980781;28;20125;-75
2021/08/11 05:39:32;;;;;;;4.85;2.80;;;;;;;;;;4981816;28;20077;-75
2021/08/11 05:41:58;;;;;;;7.28;2.80;;;;;;;;;;4986418;28;20495;-75
2021/08/11 05:44:24;;;;;;;4.82;2.58;;;;;;;;;;4984277;28;20027;-75
2021/08/11 05:46:50;;;;;;;6.53;2.80;;;;;;;;;;4981939;28;20026;-76
2021/08/11 05:49:16;;;;;;;5.28;2.85;;;;;;;;;;4983069;28;20027;-75
2021/08/11 05:51:42;;;;;;;4.15;2.50;;;;;;;;;;4982646;28;20031;-76
2021/08/11 05:54:08;;;;;;;6.30;2.70;;;;;;;;;;4983543;28;20033;-76
2021/08/11 05:56:34;;;;;;;5.47;2.80;;;;;;;;;;4984675;28;20530;-75
2021/08/11 05:59:00;;;;;;;4.32;2.38;;;;;;;;;;4981846;28;20039;-75
2021/08/11 06:01:27;;;;;;;9.50;2.38;;;;;;;;;;4982349;28;20034;-76
2021/08/11 06:03:58;;;;;;;13.75;4.70;;;;;;;;;;4982555;28;20238;-76
2021/08/11 06:06:25;;;;;;;4.20;2.50;;;;;;;;;;4982812;28;20035;-75
2021/08/11 06:08:51;;;;;;;6.38;2.65;;;;;;;;;;4983464;28;20031;-75
2021/08/11 06:11:17;;;;;;;4.78;2.78;;;;;;;;;;4982465;28;20121;-76
2021/08/11 06:13:43;;;;;;;4.47;2.35;;;;;;;;;;4980002;28;20252;-75
2021/08/11 06:16:09;;;;;;;4.82;2.63;;;;;;;;;;4981182;28;20041;-76
2021/08/11 06:18:35;;;;;;;3.20;2.15;;;;;;;;;;4983037;28;20027;-76
2021/08/11 06:21:01;;;;;;;5.22;2.40;;;;;;;;;;4978734;28;20030;-75
2021/08/11 06:23:27;;;;;;;6.88;2.97;;;;;;;;;;4982083;28;20026;-76
2021/08/11 06:25:53;;;;;;;4.78;2.65;;;;;;;;;;4993460;28;20032;-76
2021/08/11 06:28:19;;;;;;;4.10;2.50;;;;;;;;;;4985133;28;20114;-76
2021/08/11 06:30:45;;;;;;;4.00;2.72;;;;;;;;;;4976392;28;20027;-76
2021/08/11 06:33:11;;;;;;;5.00;2.47;;;;;;;;;;4973568;28;20065;-78
2021/08/11 06:35:37;;;;;;;3.70;2.30;;;;;;;;;;4991941;28;20368;-76
2021/08/11 06:38:03;;;;;;;3.55;2.35;;;;;;;;;;4987276;28;20058;-75
2021/08/11 06:40:30;;;;;;;2.78;1.95;;;;;;;;;;4990059;28;20033;-75
2021/08/11 06:42:56;;;;;;;3.40;2.13;;;;;;;;;;4973260;28;20383;-73
2021/08/11 06:45:22;;;;;;;3.90;2.17;;;;;;;;;;4985320;28;20378;-75
2021/08/11 06:47:48;;;;;;;4.22;2.08;;;;;;;;;;4988696;28;20113;-73
2021/08/11 06:50:22;;;;;;;5.75;2.17;;;;;;;;;;4978503;28;20033;-74
2021/08/11 06:52:48;;;;;;;5.95;2.67;;;;;;;;;;4960529;28;20037;-73
2021/08/11 06:55:15;;;;;;;4.70;2.08;;;;;;;;;;4980156;28;20030;-74
2021/08/11 06:57:44;;;;;;;6.15;2.08;;;;;;;;;;4982894;28;20053;-76
2021/08/11 07:00:10;;;;;;;7.82;2.20;;;;;;;;;;4982052;28;20798;-74
2021/08/11 07:02:36;;;;;;;3.55;2.00;;;;;;;;;;4986325;28;20030;-75
2021/08/11 07:05:02;;;;;;;4.95;2.13;;;;;;;;;;4975379;28;20423;-74
2021/08/11 07:07:30;;;;;;;6.60;2.55;;;;;;;;;;4983289;28;20050;-73
2021/08/11 07:09:56;;;;;;;3.88;2.08;;;;;;;;;;4976509;28;20507;-74
2021/08/11 07:12:22;;;;;;;4.63;2.10;;;;;;;;;;4988412;28;20058;-73
2021/08/11 07:14:48;;;;;;;3.78;2.13;;;;;;;;;;4973283;28;20034;-74
2021/08/11 07:17:14;;;;;;;6.63;2.40;;;;;;;;;;4992751;28;20026;-74
2021/08/11 07:19:40;;;;;;;4.40;2.40;;;;;;;;;;4981281;28;20033;-74
2021/08/11 07:22:08;;;;;;;4.85;2.20;;;;;;;;;;4987916;28;20030;-73
2021/08/11 07:24:34;;;;;;;4.93;1.90;;;;;;;;;;4981658;28;20423;-74
2021/08/11 07:27:00;;;;;;;2.70;1.75;;;;;;;;;;4982360;28;20149;-73
2021/08/11 07:29:26;;;;;;;4.68;2.47;;;;;;;;;;4981417;28;20117;-74
2021/08/11 07:31:52;;;;;;;5.80;2.30;;;;;;;;;;4978710;28;20038;-75
2021/08/11 07:34:18;;;;;;;4.53;2.25;;;;;;;;;;4977843;28;20030;-72
2021/08/11 07:36:44;;;;;;;4.22;1.88;;;;;;;;;;4977690;28;20502;-72
2021/08/11 07:39:11;;;;;;;3.55;2.00;;;;;;;;;;4976288;28;20522;-72
2021/08/11 07:41:36;;;;;;;6.82;2.10;;;;;;;;;;4978343;28;20498;-70
2021/08/11 07:44:02;;;;;;;4.63;2.08;;;;;;;;;;4976885;28;20030;-72
2021/08/11 07:46:29;;;;;;;8.23;2.20;;;;;;;;;;4971226;28;20149;-72
2021/08/11 07:48:55;;;;;;;4.63;2.20;;;;;;;;;;4983371;28;20033;-72
2021/08/11 07:51:21;;;;;;;5.10;2.47;;;;;;;;;;4974254;28;20438;-71
2021/08/11 07:53:47;;;;;;;5.53;2.00;;;;;;;;;;4972157;28;20078;-73
2021/08/11 07:56:13;;;;;;;4.18;2.10;;;;;;;;;;4986239;28;20107;-74
2021/08/11 07:58:39;;;;;;;5.75;2.22;;;;;;;;;;4981449;28;20117;-73
2021/08/11 08:01:05;;;;;;;3.97;2.17;;;;;;;;;;4981026;28;20023;-73
2021/08/11 08:03:31;;;;;;;3.97;1.88;;;;;;;;;;4977657;28;20424;-77
2021/08/11 08:05:57;;;;;;;7.43;2.50;;;;;;;;;;4993657;28;20086;-78
2021/08/11 08:08:23;;;;;;;4.35;2.10;;;;;;;;;;4987669;28;20035;-77
2021/08/11 08:10:49;;;;;;;4.22;2.10;;;;;;;;;;4982368;28;20018;-78
2021/08/11 08:13:15;;;;;;;6.75;2.45;;;;;;;;;;4986820;28;20034;-78
2021/08/11 08:15:42;;;;;;;6.47;2.38;;;;;;;;;;4977048;28;20090;-78
2021/08/11 08:18:08;;;;;;;4.55;1.98;;;;;;;;;;4977843;28;20034;-78
2021/08/11 08:20:34;;;;;;;5.03;2.30;;;;;;;;;;4977575;28;20073;-78
2021/08/11 08:23:00;;;;;;;5.13;2.25;;;;;;;;;;4976862;28;20033;-78
2021/08/11 08:25:27;;;;;;;8.75;2.22;;;;;;;;;;4976759;28;20019;-78
2021/08/11 08:27:53;;;;;;;5.53;2.00;;;;;;;;;;4978023;28;20113;-78
2021/08/11 08:30:20;;;;;;;4.93;1.95;;;;;;;;;;4976839;28;20030;-77
2021/08/11 08:32:49;;;;;;;3.60;2.10;;;;;;;;;;4977268;28;20031;-78
2021/08/11 08:35:16;;;;;;;4.22;2.22;;;;;;;;;;4977855;28;20034;-76
2021/08/11 08:37:42;;;;;;;4.47;2.40;;;;;;;;;;4977540;28;20046;-78
2021/08/11 08:40:10;;;;;;;5.53;2.70;;;20.40;99.90;;;;;;4976114;28;20050;-78
2021/08/11 08:42:37;;;;;;;8.73;2.60;;;;;;;;;;4977074;28;20033;-78
2021/08/11 08:45:04;;;;;;;6.00;2.50;;;;;;;;;;4977856;28;20031;-78
2021/08/11 08:47:31;;;;;;;5.63;2.45;;;;;;;;;;4977696;28;20066;-78
2021/08/11 08:49:58;;;;;;;4.65;2.30;;;;;;;;;;4960107;28;20042;-76
2021/08/11 08:52:24;;;;;;;3.22;2.30;;;;;;;;;;4977505;28;20047;-77
2021/08/11 08:54:51;;;;;;;7.80;2.40;;;;;;;;;;4958294;28;20038;-77
2021/08/11 08:57:17;;;;;;;4.20;2.58;;;;;;;;;;4957541;28;20121;-78
2021/08/11 08:59:44;;;;;;;5.32;2.33;;;;;;;;;;4976219;28;20034;-78
2021/08/11 09:02:13;;;;;;;8.70;2.60;;;;;;;;;;4977822;28;20026;-77
2021/08/11 09:04:40;;;;;;;4.25;2.13;;;;;;;;;;4977549;28;20023;-78
2021/08/11 09:07:07;;;;;;;7.07;2.28;;;;;;;;;;4978302;28;20051;-77
2021/08/11 09:09:35;;;;;;;6.65;2.22;;;;;;;;;;4977361;28;20050;-78
2021/08/11 09:12:13;;;;;;;9.88;2.90;;;;;;;;;;4978338;28;20031;-78
2021/08/11 09:14:42;;;;;;;9.52;2.78;;;;;;;;;;4976336;28;20031;-78
2021/08/11 09:17:08;;;;;;;3.70;2.72;;;;;;;;;;4975945;28;20023;-78
2021/08/11 09:19:38;;;;;;;8.38;2.65;;;;;;;;;;4976290;28;20082;-78
2021/08/11 09:22:05;;;;;;;9.95;2.50;;;;;;;;;;4976612;28;20795;-77
2021/08/11 09:24:36;;;;;;;6.03;2.88;;;;;;;;;;4975485;28;20027;-78
2021/08/11 09:27:23;;;;;;;6.65;2.85;;;;;;;;;;4977041;28;20056;-78
2021/08/11 09:30:01;;;;;;;5.65;2.78;;;;;;;;;;4976662;28;20392;-77
2021/08/11 09:32:27;;;;;;;4.22;2.53;;;;;;;;;;4976422;28;20106;-76
2021/08/11 09:34:54;;;;;;;5.88;2.40;;;;;;;;;;4975100;28;20029;-78
2021/08/11 09:37:37;;;;;;;4.68;2.30;;;;;;;;;;4977625;28;20456;-78
2021/08/11 09:40:16;;;;;;;5.25;2.40;;;;;;;;;;4975611;28;20029;-78
2021/08/11 09:42:43;;;;;;;5.43;2.30;;;;;;;;;;4974867;28;20030;-75
2021/08/11 09:45:09;;;;;;;4.97;2.85;;;;;;;;;;4973468;28;20650;-74
2021/08/11 09:47:36;;;;;;;4.30;2.60;;;;;;;;;;4974846;28;20042;-75
2021/08/11 09:50:07;;;;;;;6.45;2.40;;;;;;;;;;4974178;28;20035;-75
2021/08/11 09:52:50;;;;;;;6.47;2.17;;;;;;;;;;4974927;28;20042;-75
2021/08/11 09:55:16;;;;;;;5.78;2.97;;;;;;;;;;4974697;28;20118;-75
2021/08/11 09:57:43;;;;;;;4.53;2.20;;;;;;;;;;4974454;28;20373;-74
2021/08/11 10:00:13;;;;;;;4.15;2.20;;;;;;;;;;4973479;28;20558;-75
2021/08/11 10:02:40;;;;;;;5.28;2.30;;;;;;;;;;4973403;28;20018;-75
2021/08/11 10:05:06;;;;;;;10.45;2.78;;;;;;;;;;4974515;28;20086;-77
2021/08/11 10:07:32;;;;;;;4.50;2.67;;;;;;;;;;4974477;28;20105;-77
2021/08/11 10:10:05;;;;;;;5.25;2.30;;;;;;;;;;4973843;28;20401;-73
2021/08/11 10:12:32;;;;;;;8.52;2.80;;;;;;;;;;4974187;28;20484;-74
2021/08/11 10:14:59;;;;;;;9.73;2.35;;;;;;;;;;4974181;28;20039;-75
2021/08/11 10:17:34;;;;;;;6.00;2.28;;;;;;;;;;4974130;28;20049;-76
2021/08/11 10:20:01;;;;;;;6.82;2.28;;;;;;;;;;4973841;28;20067;-74
2021/08/11 10:22:27;;;;;;;3.90;2.33;;;;;;;;;;4974415;28;20030;-74
2021/08/11 10:24:55;;;;;;;6.38;2.42;;;;;;;;;;4974169;28;20026;-74
2021/08/11 10:27:20;;;;;;;4.75;2.40;;;25.40;99.90;;;;;;4974007;28;20109;-76
2021/08/11 10:29:47;;;;;;;5.53;2.70;;;30.00;94.30;;;;;;4973198;28;20117;-77
2021/08/11 10:32:13;;;;;;;8.18;2.72;;;29.60;93.50;;;;;;4983548;28;20037;-75
2021/08/11 10:34:43;;;;;;;5.25;2.50;;;29.60;94.00;;;;;;4974979;28;20026;-74
2021/08/11 10:37:11;;;;;;;4.72;2.10;;;29.50;93.60;;;;;;4972740;28;20034;-75
2021/08/11 10:39:38;;;;;;;5.05;2.10;;;29.50;93.60;;;;;;4970947;28;20023;-77
2021/08/11 10:42:16;;;;;;;5.95;2.85;;;29.60;93.40;;;;;;4954311;28;20126;-75
2021/08/11 10:44:43;;;;;;;4.40;2.30;;;29.70;92.70;;;;;;4954304;28;20077;-75
2021/08/11 10:47:11;;;;;;;5.88;2.15;;;29.50;93.10;;;;;;4954042;28;20027;-76
2021/08/11 10:49:54;;;;;;;3.83;2.45;;;29.60;93.00;;;;;;4953585;28;20028;-74
2021/08/11 10:52:20;;;;;;;4.57;2.35;;;29.60;92.90;;;;;;4954075;28;20031;-74
2021/08/11 10:54:56;;;;;;;5.68;2.65;;;29.70;92.40;;;;;;4952915;28;20104;-74
2021/08/11 10:57:34;;;;;;;5.40;2.28;;;29.40;92.80;;;;;;4952698;28;20046;-74
2021/08/11 11:00:00;;;;;;;6.55;2.50;;;29.00;92.80;;;;;;4953306;28;20019;-75
2021/08/11 11:02:39;;;;;;;4.38;2.40;;;28.90;92.90;;;;;;4952865;28;20023;-75
2021/08/11 11:05:31;;;;;;;5.28;2.20;;;28.60;93.70;;;;;;4972186;28;20030;-74
2021/08/11 11:08:12;;;;;;;4.25;2.40;;;28.40;93.20;;;;;;4973449;28;20027;-74
2021/08/11 11:10:45;;;;;;;5.93;2.55;;;28.60;93.00;;;;;;4972605;28;20042;-78
2021/08/11 11:13:23;;;;;;;3.47;1.95;;;28.70;92.80;;;;;;4973062;28;20045;-75
2021/08/11 11:15:50;;;;;;;5.72;2.63;;;28.90;93.10;;;;;;4969160;28;20026;-73
2021/08/11 11:18:21;;;;;;;5.03;2.55;;;29.30;92.50;;;;;;4965883;28;20470;-75
2021/08/11 11:20:59;;;;;;;4.53;2.22;;;29.70;91.70;;;;;;4968907;28;20081;-77
2021/08/11 11:23:35;;;;;;;7.90;2.70;;;29.60;91.70;;;;;;4953796;28;20023;-76
2021/08/11 11:26:05;;;;;;;6.72;2.03;;;29.60;92.10;;;;;;4950802;28;20035;-80
2021/08/11 11:28:53;;;;;;;5.28;2.20;;;30.00;91.60;;;;;;4950447;28;20090;-75
2021/08/11 11:31:36;;;;;;;6.43;2.50;;;30.70;90.40;;;;;;4949508;28;20035;-76
2021/08/11 11:34:22;;;;;;;5.63;2.75;;;30.90;89.10;;;;;;4964474;28;20027;-73
2021/08/11 11:36:57;;;;;;;6.15;2.28;;;30.40;89.40;;;;;;4949532;28;20023;-75
2021/08/11 11:39:31;;;;;;;5.10;3.13;;;30.60;90.30;;;;;;4950960;28;20035;-75
2021/08/11 11:42:08;;;;;;;5.60;2.00;;;31.10;87.10;;;;;;4953079;28;20522;-77
2021/08/11 11:44:59;;;;;;;4.57;2.38;;;31.00;87.40;;;;;;4953669;28;20539;-75
2021/08/11 11:50:24;;;;;;;5.78;2.40;;;31.60;86.30;;;;;;4970530;28;20034;-76
2021/08/11 11:52:56;;;;;;;7.28;2.47;;;32.30;83.20;;;;;;4992677;28;21192;-76
2021/08/11 11:55:39;;;;;;;6.03;2.28;;;32.80;82.30;;;;;;4992178;28;20029;-76
2021/08/11 11:58:16;;;;;;;3.60;2.05;;;32.00;81.10;;;;;;4993026;28;20444;-75
2021/08/11 12:00:44;;;;;;;6.53;2.50;;;31.50;83.00;;;;;;4986042;28;20077;-74
2021/08/11 12:03:10;;;;;;;7.63;2.20;;;31.60;82.50;;;;;;4964623;28;20026;-75
2021/08/11 12:05:50;;;;;;;5.93;2.33;;;31.30;82.60;;;;;;4971384;28;20027;-74
2021/08/11 12:08:18;;;;;;;7.38;2.08;;;31.10;81.60;;;;;;4972319;28;20081;-75
2021/08/11 12:10:46;;;;;;;3.88;2.33;;;31.10;81.80;;;;;;4971975;28;20122;-75
2021/08/11 12:13:12;;;;;;;4.40;2.17;;;31.00;83.70;;;;;;4971950;28;20109;-79
2021/08/11 12:15:40;;;;;;;4.20;2.25;;;30.90;82.80;;;;;;4971515;28;20067;-75
2021/08/11 12:18:23;;;;;;;3.58;2.28;;;31.50;82.20;;;;;;4971525;28;20027;-74
2021/08/11 12:20:52;;;;;;;4.63;2.30;;;31.80;80.10;;;;;;4956244;28;20023;-75
2021/08/11 12:23:17;;;;;;;3.90;2.20;;;32.00;78.90;;;;;;4951565;28;20058;-74
2021/08/11 12:25:45;;;;;;;3.50;1.98;;;31.80;78.10;;;;;;4953199;28;20484;-75
2021/08/11 12:28:13;;;;;;;7.25;2.13;;;31.30;77.80;;;;;;4953042;28;20051;-74
2021/08/11 12:30:49;;;;;;;5.00;1.95;;;31.20;79.80;;;;;;4951943;28;20031;-75
2021/08/11 12:33:18;;;;;;;4.15;2.00;;;31.00;80.50;;;;;;4959295;28;20023;-75
2021/08/11 12:35:44;;;;;;;3.80;2.15;;;30.80;78.40;;;;;;4971338;28;20452;-76
2021/08/11 12:38:10;;;;;;;9.75;2.78;;;30.50;78.60;;;;;;4972374;28;20066;-74
2021/08/11 12:40:40;;;;;;;4.45;2.30;;;30.00;81.40;;;;;;4971092;28;20043;-75
2021/08/11 12:43:07;;;;;;;5.22;2.53;;;30.00;82.20;;;;;;4971845;28;20035;-75
2021/08/11 12:45:50;;;;;;;7.20;3.05;;;30.00;81.40;;;;;;4971081;28;20425;-74
2021/08/11 12:48:29;;;;;;;3.25;2.15;;;30.40;81.70;;;;;;4972176;28;20031;-79
2021/08/11 12:50:58;;;;;;;3.60;2.30;;;31.30;76.50;;;;;;4970778;28;20407;-79
2021/08/11 12:53:29;;;;;;;3.70;2.50;;;32.00;75.00;;;;;;4972481;28;20419;-75
2021/08/11 12:56:15;;;;;;;6.55;2.90;;;32.10;72.90;;;;;;4972188;28;20101;-74
2021/08/11 12:59:04;;;;;;;4.75;2.53;;;32.00;73.50;;;;;;4971358;28;20554;-79
2021/08/11 13:01:43;;;;;;;5.65;2.65;;;31.40;74.40;;;;;;4971198;28;20442;-74
2021/08/11 13:04:23;;;;;;;4.78;2.72;;;30.40;75.50;;;;;;4970300;28;20034;-73
2021/08/11 13:06:52;;;;;;;4.22;2.53;;;30.00;76.70;;;;;;4971170;28;20023;-74
2021/08/11 13:09:30;;;;;;;4.90;2.45;;;29.90;76.40;;;;;;4969009;28;20443;-74
2021/08/11 13:12:00;;;;;;;3.65;2.25;;;30.80;78.30;;;;;;4969596;28;20023;-73
2021/08/11 13:14:54;;;;;;;3.13;2.25;;;32.60;73.70;;;;;;4971220;28;20419;-76
2021/08/11 13:17:32;;;;;;;4.35;2.25;;;33.30;69.80;;;;;;4951485;28;20058;-74
2021/08/11 13:20:36;;;;;;;5.00;2.67;;;32.70;68.40;;;;;;4968187;28;20030;-75
2021/08/11 13:23:05;;;;;;;2.67;2.15;;;33.90;66.80;;;;;;4910594;29;20091;-76
2021/08/11 13:25:31;;;;;;;4.90;2.40;;;33.80;62.50;;;;;;4964058;28;20135;-73
2021/08/11 13:27:58;;;;;;;3.70;2.40;;;34.20;62.70;;;;;;4974412;28;20043;-73
2021/08/11 13:30:26;;;;;;;4.93;2.42;;;34.10;65.50;;;;;;4972569;28;20043;-75
2021/08/11 13:32:52;;;;;;;2.97;2.15;;;34.70;66.30;;;;;;4970672;28;20034;-73
2021/08/11 13:35:18;;;;;;;3.42;2.00;;;36.40;61.10;;;;;;4972979;28;20154;-74
2021/08/11 13:37:45;;;;;;;3.92;2.55;;;37.00;59.90;;;;;;4973622;28;20031;-75
2021/08/11 13:40:13;;;;;;;5.55;2.30;;;37.00;59.50;;;;;;4973804;28;20023;-75
2021/08/11 13:42:39;;;;;;;5.20;2.40;;;38.20;58.30;;;;;;4974889;28;20022;-74
2021/08/11 13:45:05;;;;;;;3.55;2.30;;;39.80;56.90;;;;;;4974451;28;20194;-74
2021/08/11 13:47:31;;;;;;;6.57;2.20;;;40.20;54.60;;;;;;4974276;28;20026;-75
2021/08/11 13:49:57;;;;;;;4.95;2.45;;;38.60;53.40;;;;;;4974001;28;20492;-74
2021/08/11 13:52:22;;;;;;;3.97;2.50;;;36.90;54.20;;;;;;4974247;28;20046;-76
2021/08/11 13:54:49;;;;;;;5.60;2.25;;;35.30;57.30;;;;;;4974553;28;20046;-75
2021/08/11 13:57:15;;;;;;;5.93;2.30;;;34.30;60.10;;;;;;4974312;28;20089;-77
2021/08/11 13:59:41;;;;;;;4.60;2.40;;;33.60;62.20;;;;;;4973575;28;20070;-75
2021/08/11 14:02:07;;;;;;;5.50;2.47;;;33.60;64.10;;;;;;4973963;28;20035;-77
2021/08/11 14:04:32;;;;;;;3.92;2.50;;;33.20;62.50;;;;;;4974282;28;20019;-77
2021/08/11 14:07:05;;;;;;;4.93;2.58;;;32.70;63.20;;;;;;4973263;28;20055;-75
2021/08/11 14:09:32;;;;;;;3.63;2.83;;;32.40;64.00;;;;;;4972411;28;20037;-74
2021/08/11 14:11:59;;;;;;;4.22;2.67;;;32.20;64.00;;;;;;4973408;28;20097;-74
2021/08/11 14:14:25;;;;;;;4.13;2.90;;;31.20;64.00;;;;;;4974281;28;20396;-77
2021/08/11 14:16:51;;;;;;;3.47;2.40;;;31.00;66.00;;;;;;4974066;28;20077;-76
2021/08/11 14:19:18;;;;;;;4.78;2.65;;;31.30;66.10;;;;;;4973549;28;20440;-75